Time;durP1;ratioP1;P1;durP2;ratioP2;P2;SDS_P1;SDS_P2;PMS_P1;PMS_P2;Temp;Humidity;BMP_temperature;BMP_pressure;BME280_temperature;BME280_humidity;BME280_pressure;Samples;Min_cycle;Max_cycle;Signal;HPM_P1;HPM_P2
2020/12/03 00:00:01;;;;;;;;;;;0.70;99.90;;;;;;5070257;28;19959;-74
2020/12/03 00:02:26;;;;;;;;;;;0.70;99.90;;;;;;5090814;28;19938;-74
2020/12/03 00:04:51;;;;;;;;;;;0.70;99.90;;;;;;5091170;28;19943;-74
2020/12/03 00:07:17;;;;;;;;;;;0.60;99.90;;;;;;5089296;28;19908;-74
2020/12/03 00:09:43;;;;;;;;;;;0.50;99.90;;;;;;5088520;28;19954;-75
2020/12/03 00:12:09;;;;;;;;;;;0.50;99.90;;;;;;5089531;28;20323;-75
2020/12/03 00:14:35;;;;;;;;;;;0.50;99.90;;;;;;5089102;28;19908;-74
2020/12/03 00:17:00;;;;;;;;;;;0.50;99.90;;;;;;5088277;28;20388;-74
2020/12/03 00:19:26;;;;;;;;;;;0.50;99.90;;;;;;5094978;28;19912;-74
2020/12/03 00:22:00;;;;;;;;;;;0.50;99.90;;;;;;5095311;28;20284;-75
2020/12/03 00:24:27;;;;;;;;;;;0.50;99.90;;;;;;5095330;28;19951;-74
2020/12/03 00:26:53;;;;;;;;;;;0.50;99.90;;;;;;5094469;28;19912;-74
2020/12/03 00:29:19;;;;;;;;;;;0.50;99.90;;;;;;5095160;28;19961;-74
2020/12/03 00:31:45;;;;;;;;;;;0.50;99.90;;;;;;5094706;28;20380;-74
2020/12/03 00:34:10;;;;;;;;;;;0.50;99.90;;;;;;5095057;28;20279;-74
2020/12/03 00:36:36;;;;;;;;;;;0.50;99.90;;;;;;5094086;28;19947;-74
2020/12/03 00:39:04;;;;;;;;;;;0.50;99.90;;;;;;5093832;28;19997;-74
2020/12/03 00:41:29;;;;;;;;;;;0.50;99.90;;;;;;5094748;28;19908;-74
2020/12/03 00:43:55;;;;;;;;;;;0.50;99.90;;;;;;5095101;28;19912;-74
2020/12/03 00:46:26;;;;;;;;;;;0.40;99.90;;;;;;5086045;28;19915;-74
2020/12/03 00:48:52;;;;;;;;;;;0.30;99.90;;;;;;5114975;28;19916;-74
2020/12/03 00:51:17;;;;;;;;;;;0.30;99.90;;;;;;5115029;28;20006;-75
2020/12/03 00:53:43;;;;;;;;;;;0.30;99.90;;;;;;5114905;28;20334;-74
2020/12/03 00:56:08;;;;;;;;;;;0.30;99.90;;;;;;5114888;28;19998;-74
2020/12/03 00:58:33;;;;;;;;;;;0.30;99.90;;;;;;5114473;28;19908;-74
2020/12/03 01:00:59;;;;;;;;;;;0.30;99.90;;;;;;5115090;28;20357;-74
2020/12/03 01:03:24;;;;;;;;;;;0.40;99.90;;;;;;5114413;28;20010;-74
2020/12/03 01:05:51;;;;;;;;;;;0.40;99.90;;;;;;5114575;28;19955;-74
2020/12/03 01:08:16;;;;;;;;;;;0.40;99.90;;;;;;5114748;28;19957;-75
2020/12/03 01:10:42;;;;;;;;;;;0.50;99.90;;;;;;5113461;28;20326;-75
2020/12/03 01:13:07;;;;;;;;;;;0.50;99.90;;;;;;5114362;28;19908;-74
2020/12/03 01:15:33;;;;;;;;;;;0.50;99.90;;;;;;5096680;28;19919;-75
2020/12/03 01:17:58;;;;;;;;;;;0.50;99.90;;;;;;5092389;28;20364;-74
2020/12/03 01:20:25;;;;;;;;;;;0.50;99.90;;;;;;5093631;28;19916;-75
2020/12/03 01:22:51;;;;;;;;;;;0.40;99.90;;;;;;5094544;28;19915;-74
2020/12/03 01:25:18;;;;;;;;;;;0.50;99.90;;;;;;5093583;28;19912;-75
2020/12/03 01:27:43;;;;;;;;;;;0.50;99.90;;;;;;5094051;28;20003;-75
2020/12/03 01:30:09;;;;;;;;;;;0.50;99.90;;;;;;5093969;28;19943;-74
2020/12/03 01:32:35;;;;;;;;;;;0.60;99.90;;;;;;5093918;28;19962;-75
2020/12/03 01:35:01;;;;;;;;;;;0.60;99.90;;;;;;5093692;28;19912;-74
2020/12/03 01:37:26;;;;;;;;;;;0.60;99.90;;;;;;5093536;28;20361;-75
2020/12/03 01:39:52;;;;;;;;;;;0.70;99.90;;;;;;5093399;28;19908;-75
2020/12/03 01:42:17;;;;;;;;;;;0.60;99.90;;;;;;5094411;28;19908;-75
2020/12/03 01:44:47;;;;;;;;;;;0.60;99.90;;;;;;5090281;28;19908;-74
2020/12/03 01:47:16;;;;;;;;;;;0.70;99.90;;;;;;5089343;28;19961;-75
2020/12/03 01:49:42;;;;;;;;;;;0.70;99.90;;;;;;5093628;28;19915;-75
2020/12/03 01:52:07;;;;;;;;;;;0.60;99.90;;;;;;5091872;28;20365;-75
2020/12/03 01:54:32;;;;;;;;;;;0.60;99.90;;;;;;5093663;28;19908;-75
2020/12/03 01:56:58;;;;;;;;;;;0.60;99.90;;;;;;5092726;28;19908;-75
2020/12/03 01:59:26;;;;;;;;;;;0.60;99.90;;;;;;5093412;28;19916;-74
2020/12/03 02:01:52;;;;;;;;;;;0.60;99.90;;;;;;5093158;28;19919;-75
2020/12/03 02:04:18;;;;;;;;;;;0.60;99.90;;;;;;5093351;28;20430;-74
2020/12/03 02:06:44;;;;;;;;;;;0.60;99.90;;;;;;5092731;28;19908;-75
2020/12/03 02:09:12;;;;;;;;;;;0.60;99.90;;;;;;5093386;28;19953;-74
2020/12/03 02:11:38;;;;;;;;;;;0.60;99.90;;;;;;5091405;28;19912;-75
2020/12/03 02:14:09;;;;;;;;;;;0.70;99.90;;;;;;5093279;28;20003;-75
2020/12/03 02:16:36;;;;;;;;;;;0.70;99.90;;;;;;5084789;28;19919;-75
2020/12/03 02:19:02;;;;;;;;;;;0.70;99.90;;;;;;5091439;28;19961;-74
2020/12/03 02:21:28;;;;;;;;;;;0.70;99.90;;;;;;5091783;28;19914;-74
2020/12/03 02:23:53;;;;;;;;;;;0.80;99.90;;;;;;5092486;28;19908;-75
2020/12/03 02:26:19;;;;;;;;;;;0.80;99.90;;;;;;5091581;28;20276;-75
2020/12/03 02:28:44;;;;;;;;;;;0.70;99.90;;;;;;5090755;28;19916;-75
2020/12/03 02:31:10;;;;;;;;;;;0.70;99.90;;;;;;5092826;28;19916;-75
2020/12/03 02:33:35;;;;;;;;;;;0.60;99.90;;;;;;5092094;28;19935;-74
2020/12/03 02:36:01;;;;;;;;;;;0.50;99.90;;;;;;5092482;28;19912;-74
2020/12/03 02:38:29;;;;;;;;;;;0.50;99.90;;;;;;5091621;28;19955;-74
2020/12/03 02:40:58;;;;;;;;;;;0.40;99.90;;;;;;5092661;28;20400;-75
2020/12/03 02:43:24;;;;;;;;;;;0.40;99.90;;;;;;5092577;28;19916;-74
2020/12/03 02:45:50;;;;;;;;;;;0.40;99.90;;;;;;5084490;28;19908;-75
2020/12/03 02:48:15;;;;;;;;;;;0.40;99.90;;;;;;5092233;28;20109;-74
2020/12/03 02:50:41;;;;;;;;;;;0.40;99.90;;;;;;5091947;28;19912;-75
2020/12/03 02:53:06;;;;;;;;;;;0.30;99.90;;;;;;5092483;28;19912;-74
2020/12/03 02:55:32;;;;;;;;;;;0.30;99.90;;;;;;5092163;28;19909;-74
2020/12/03 02:57:57;;;;;;;;;;;0.30;99.90;;;;;;5092482;28;19916;-74
2020/12/03 03:00:22;;;;;;;;;;;0.30;99.90;;;;;;5091710;28;19915;-74
2020/12/03 03:02:48;;;;;;;;;;;0.30;99.90;;;;;;5092127;28;20004;-74
2020/12/03 03:05:32;;;;;;;;;;;0.30;99.90;;;;;;5091720;28;19947;-75
2020/12/03 03:08:24;;;;;;;;;;;0.30;99.90;;;;;;5091904;28;19912;-75
2020/12/03 03:10:49;;;;;;;;;;;0.40;99.90;;;;;;5088619;28;20424;-74
2020/12/03 03:13:15;;;;;;;;;;;0.40;99.90;;;;;;5090770;28;19946;-75
2020/12/03 03:16:00;;;;;;;;;;;0.50;99.90;;;;;;5082031;28;20353;-75
2020/12/03 03:18:26;;;;;;;;;;;0.50;99.90;;;;;;5091722;28;19912;-74
2020/12/03 03:20:51;;;;;;;;;;;0.60;99.90;;;;;;5091068;28;20254;-75
2020/12/03 03:23:17;;;;;;;;;;;0.50;99.90;;;;;;5092031;28;19908;-74
2020/12/03 03:25:43;;;;;;;;;;;0.50;99.90;;;;;;5090756;28;19908;-75
2020/12/03 03:28:09;;;;;;;;;;;0.50;99.90;;;;;;5072441;28;19916;-75
2020/12/03 03:30:34;;;;;;;;;;;0.60;99.90;;;;;;5070025;28;20277;-75
2020/12/03 03:33:00;;;;;;;;;;;0.60;99.90;;;;;;5071012;28;19915;-75
2020/12/03 03:35:25;;;;;;;;;;;0.60;99.90;;;;;;5068911;28;20274;-75
2020/12/03 03:37:56;;;;;;;;;;;0.50;99.90;;;;;;5067783;28;19913;-75
2020/12/03 03:40:36;;;;;;;;;;;0.50;99.90;;;;;;5068528;28;19955;-75
2020/12/03 03:43:02;;;;;;;;;;;0.50;99.90;;;;;;5068191;28;19951;-75
2020/12/03 03:45:48;;;;;;;;;;;0.50;99.90;;;;;;5070278;28;20357;-75
2020/12/03 03:48:14;;;;;;;;;;;0.50;99.90;;;;;;5086738;28;20010;-75
2020/12/03 03:50:39;;;;;;;;;;;0.50;99.90;;;;;;5087433;28;20495;-75
2020/12/03 03:53:05;;;;;;;;;;;0.50;99.90;;;;;;5091003;28;19916;-75
2020/12/03 03:55:30;;;;;;;;;;;0.40;99.90;;;;;;5091481;28;20052;-75
2020/12/03 03:57:55;;;;;;;;;;;0.40;99.90;;;;;;5090518;28;19969;-75
2020/12/03 04:00:21;;;;;;;;;;;0.40;99.90;;;;;;5091234;28;19908;-75
2020/12/03 04:02:48;;;;;;;;;;;0.40;99.90;;;;;;5090716;28;20327;-75
2020/12/03 04:05:14;;;;;;;;;;;0.40;99.90;;;;;;5091264;28;19909;-75
2020/12/03 04:07:39;;;;;;;;;;;0.40;99.90;;;;;;5090923;28;19915;-75
2020/12/03 04:10:06;;;;;;;;;;;0.30;99.90;;;;;;5090612;28;19908;-75
2020/12/03 04:12:31;;;;;;;;;;;0.30;99.90;;;;;;5091139;28;19973;-75
2020/12/03 04:15:00;;;;;;;;;;;0.30;99.90;;;;;;5085152;28;20361;-75
2020/12/03 04:17:29;;;;;;;;;;;0.30;99.90;;;;;;5087381;28;19915;-75
2020/12/03 04:19:54;;;;;;;;;;;0.30;99.90;;;;;;5090724;28;20003;-75
2020/12/03 04:22:20;;;;;;;;;;;0.30;99.90;;;;;;5091178;28;19948;-75
2020/12/03 04:24:46;;;;;;;;;;;0.40;99.90;;;;;;5090596;28;19934;-75
2020/12/03 04:27:11;;;;;;;;;;;0.40;99.90;;;;;;5090887;28;20428;-75
2020/12/03 04:29:37;;;;;;;;;;;0.40;99.90;;;;;;5090287;28;19923;-75
2020/12/03 04:32:02;;;;;;;;;;;0.40;99.90;;;;;;5090924;28;19920;-75
2020/12/03 04:34:28;;;;;;;;;;;0.50;99.90;;;;;;5091100;28;19958;-74
2020/12/03 04:36:53;;;;;;;;;;;0.50;99.90;;;;;;5090367;28;20309;-75
2020/12/03 04:39:19;;;;;;;;;;;0.50;99.90;;;;;;5090987;28;19968;-75
2020/12/03 04:41:44;;;;;;;;;;;0.50;99.90;;;;;;5090470;28;20335;-74
2020/12/03 04:44:20;;;;;;;;;;;0.50;99.90;;;;;;5090956;28;19908;-74
2020/12/03 04:47:09;;;;;;;;;;;0.50;99.90;;;;;;5082395;28;20046;-75
2020/12/03 04:49:39;;;;;;;;;;;0.50;99.90;;;;;;5070614;28;19908;-75
2020/12/03 04:52:22;;;;;;;;;;;0.60;99.90;;;;;;5090174;28;19921;-75
2020/12/03 04:55:14;;;;;;;;;;;0.70;99.90;;;;;;5090694;28;19915;-75
2020/12/03 04:57:50;;;;;;;;;;;0.60;99.90;;;;;;5090159;28;19976;-75
2020/12/03 05:00:18;;;;;;;;;;;0.70;99.90;;;;;;5090772;28;20246;-75
2020/12/03 05:02:58;;;;;;;;;;;0.70;99.90;;;;;;5093920;28;20379;-75
2020/12/03 05:05:26;;;;;;;;;;;0.70;99.90;;;;;;5094498;28;19931;-75
2020/12/03 05:08:08;;;;;;;;;;;0.70;99.90;;;;;;5092190;28;19915;-75
2020/12/03 05:10:37;;;;;;;;;;;0.70;99.90;;;;;;5092943;28;20281;-75
2020/12/03 05:13:02;;;;;;;;;;;0.70;99.90;;;;;;5093730;28;20458;-75
2020/12/03 05:15:32;;;;;;;;;;;0.70;99.90;;;;;;5085075;28;19951;-75
2020/12/03 05:18:17;;;;;;;;;;;0.70;99.90;;;;;;5091864;28;19908;-75
2020/12/03 05:20:45;;;;;;;;;;;0.70;99.90;;;;;;5094063;28;19916;-75
2020/12/03 05:23:13;;;;;;;;;;;0.70;99.90;;;;;;5093610;28;20323;-75
2020/12/03 05:25:39;;;;;;;;;;;0.70;99.90;;;;;;5093749;28;20365;-75
2020/12/03 05:28:23;;;;;;;;;;;0.70;99.90;;;;;;5093237;28;19927;-75
2020/12/03 05:30:48;;;;;;;;;;;0.70;99.90;;;;;;5093700;28;19912;-75
2020/12/03 05:33:14;;;;;;;;;;;0.70;99.90;;;;;;5093501;28;19912;-75
2020/12/03 05:35:40;;;;;;;;;;;0.70;99.90;;;;;;5093520;28;19908;-75
2020/12/03 05:38:12;;;;;;;;;;;0.70;99.90;;;;;;5093629;28;19908;-75
2020/12/03 05:40:38;;;;;;;;;;;0.70;99.90;;;;;;5093298;28;19912;-74
2020/12/03 05:43:03;;;;;;;;;;;0.70;99.90;;;;;;5093715;28;19930;-74
2020/12/03 05:45:33;;;;;;;;;;;0.70;99.90;;;;;;5085296;28;19912;-75
2020/12/03 05:47:59;;;;;;;;;;;0.80;99.90;;;;;;5093057;28;19999;-75
2020/12/03 05:50:38;;;;;;;;;;;0.80;99.90;;;;;;5093285;28;19987;-75
2020/12/03 05:53:17;;;;;;;;;;;0.80;99.90;;;;;;5092173;28;19908;-74
2020/12/03 05:55:44;;;;;;;;;;;0.80;99.90;;;;;;5092655;28;19991;-75
2020/12/03 05:58:18;;;;;;;;;;;0.70;99.90;;;;;;5093346;28;20340;-75
2020/12/03 06:00:44;;;;;;;;;;;0.70;99.90;;;;;;5092770;28;20335;-75
2020/12/03 06:03:16;;;;;;;;;;;0.70;99.90;;;;;;5093384;28;19915;-75
2020/12/03 06:05:50;;;;;;;;;;;0.70;99.90;;;;;;5092295;28;19915;-75
2020/12/03 06:08:15;;;;;;;;;;;0.80;99.90;;;;;;5093286;28;19908;-75
2020/12/03 06:10:50;;;;;;;;;;;0.80;99.90;;;;;;5092509;28;20434;-75
2020/12/03 06:13:34;;;;;;;;;;;0.80;99.90;;;;;;5092191;28;19908;-75
2020/12/03 06:16:01;;;;;;;;;;;0.80;99.90;;;;;;5084653;28;19915;-75
2020/12/03 06:18:29;;;;;;;;;;;0.80;99.90;;;;;;5092914;28;19935;-75
2020/12/03 06:21:03;;;;;;;;;;;0.90;99.90;;;;;;5090381;28;20372;-75
2020/12/03 06:23:38;;;;;;;;;;;0.90;99.90;;;;;;5092849;28;19916;-75
2020/12/03 06:26:19;;;;;;;;;;;0.90;99.90;;;;;;5091153;28;19915;-75
2020/12/03 06:28:45;;;;;;;;;;;0.90;99.90;;;;;;5092387;28;19916;-75
2020/12/03 06:31:22;;;;;;;;;;;1.00;99.90;;;;;;5091479;28;19977;-75
2020/12/03 06:33:55;;;;;;;;;;;1.00;99.90;;;;;;5092412;28;19940;-75
2020/12/03 06:36:27;;;;;;;;;;;0.90;99.90;;;;;;5092373;28;19908;-75
2020/12/03 06:39:22;;;;;;;;;;;1.00;99.90;;;;;;5092020;28;19912;-75
2020/12/03 06:41:53;;;;;;;;;;;1.00;99.90;;;;;;5079310;28;19908;-75
2020/12/03 06:44:25;;;;;;;;;;;1.00;99.90;;;;;;5092241;28;19931;-75
2020/12/03 06:47:03;;;;;;;;;;;1.10;99.90;;;;;;5078326;28;19999;-75
2020/12/03 06:49:44;;;;;;;;;;;1.10;99.90;;;;;;5091828;28;20334;-75
2020/12/03 06:52:18;;;;;;;;;;;1.00;99.90;;;;;;5092360;28;20010;-75
2020/12/03 06:55:02;;;;;;;;;;;1.00;99.90;;;;;;5090713;28;19916;-75
2020/12/03 06:57:47;;;;;;;;;;;1.00;99.90;;;;;;5091677;28;19909;-75
2020/12/03 07:00:32;;;;;;;;;;;1.00;99.90;;;;;;5092319;28;20007;-75
2020/12/03 07:03:09;;;;;;;;;;;1.00;99.90;;;;;;5092017;28;19911;-75
2020/12/03 07:05:53;;;;;;;;;;;1.00;99.90;;;;;;5091986;28;20403;-75
2020/12/03 07:08:21;;;;;;;;;;;1.00;99.90;;;;;;5091501;28;20357;-74
2020/12/03 07:11:05;;;;;;;;;;;1.00;99.90;;;;;;5092014;28;19916;-75
2020/12/03 07:13:43;;;;;;;;;;;1.00;99.90;;;;;;5091811;28;20002;-75
2020/12/03 07:16:08;;;;;;;;;;;1.00;99.90;;;;;;5083983;28;20003;-75
2020/12/03 07:18:53;;;;;;;;;;;1.00;99.90;;;;;;5091622;28;19951;-75
2020/12/03 07:21:30;;;;;;;;;;;1.00;99.90;;;;;;5091515;28;19953;-75
2020/12/03 07:24:01;;;;;;;;;;;1.10;99.90;;;;;;5091802;28;19934;-75
2020/12/03 07:26:29;;;;;;;;;;;1.10;99.90;;;;;;5090759;28;19912;-75
2020/12/03 07:28:57;;;;;;;;;;;1.10;99.90;;;;;;5091568;28;19985;-75
2020/12/03 07:31:27;;;;;;;;;;;1.20;99.90;;;;;;5091101;28;19912;-75
2020/12/03 07:34:19;;;;;;;;;;;1.10;99.90;;;;;;5091905;28;19909;-75
2020/12/03 07:37:04;;;;;;;;;;;1.20;99.90;;;;;;5088608;28;19908;-75
2020/12/03 07:39:32;;;;;;;;;;;1.20;99.90;;;;;;5091565;28;19908;-75
2020/12/03 07:41:58;;;;;;;;;;;1.20;99.90;;;;;;5090947;28;19930;-75
2020/12/03 07:44:26;;;;;;;;;;;1.20;99.90;;;;;;5091129;28;20357;-75
2020/12/03 07:46:53;;;;;;;;;;;1.20;99.90;;;;;;5083836;28;20272;-75
2020/12/03 07:49:39;;;;;;;;;;;1.20;99.90;;;;;;5089781;28;19938;-75
2020/12/03 07:52:23;;;;;;;;;;;1.20;99.90;;;;;;5088383;28;19916;-75
2020/12/03 07:54:48;;;;;;;;;;;1.20;99.90;;;;;;5085021;28;19908;-75
2020/12/03 07:57:32;;;;;;;;;;;1.20;99.90;;;;;;5088953;28;19915;-76
2020/12/03 07:59:58;;;;;;;;;;;1.10;99.90;;;;;;5091218;28;20347;-75
2020/12/03 08:03:02;;;;;;;;;;;1.20;99.90;;;;;;5082178;28;20011;-75
2020/12/03 08:05:43;;;;;;;;;;;1.10;99.90;;;;;;5048517;28;20492;-75
2020/12/03 08:08:34;;;;;;;;;;;1.10;99.90;;;;;;5048202;28;20389;-75
2020/12/03 08:11:00;;;;;;;;;;;1.20;99.90;;;;;;5075414;28;20343;-75
2020/12/03 08:13:27;;;;;;;;;;;1.20;99.90;;;;;;5090787;28;20005;-75
2020/12/03 08:15:56;;;;;;;;;;;1.20;99.90;;;;;;5083177;28;19908;-75
2020/12/03 08:18:39;;;;;;;;;;;1.20;99.90;;;;;;5090296;28;20280;-75
2020/12/03 08:21:04;;;;;;;;;;;1.20;99.90;;;;;;5090940;28;19952;-75
2020/12/03 08:23:30;;;;;;;;;;;1.20;99.90;;;;;;5090745;28;20000;-75
2020/12/03 08:25:55;;;;;;;;;;;1.20;99.90;;;;;;5090597;28;20287;-75
2020/12/03 08:28:26;;;;;;;;;;;1.20;99.90;;;;;;5090929;28;19916;-75
2020/12/03 08:30:52;;;;;;;;;;;1.20;99.90;;;;;;5090492;28;19912;-75
2020/12/03 08:33:27;;;;;;;;;;;1.20;99.90;;;;;;5090751;28;20329;-75
2020/12/03 08:36:00;;;;;;;;;;;1.30;99.90;;;;;;5090047;28;20361;-75
2020/12/03 08:38:31;;;;;;;;;;;1.30;99.90;;;;;;5094785;28;19953;-75
2020/12/03 08:41:00;;;;;;;;;;;1.30;99.90;;;;;;5094394;28;20014;-75
2020/12/03 08:43:26;;;;;;;;;;;1.30;99.90;;;;;;5093522;28;19977;-75
2020/12/03 08:45:58;;;;;;;;;;;1.30;99.90;;;;;;5086016;28;20408;-75
2020/12/03 08:48:25;;;;;;;;;;;1.30;99.90;;;;;;5094405;28;19948;-75
2020/12/03 08:50:55;;;;;;;;;;;1.30;99.90;;;;;;5093980;28;20007;-75
2020/12/03 08:53:21;;;;;;;;;;;1.20;99.90;;;;;;5094564;28;19909;-75
2020/12/03 08:55:46;;;;;;;;;;;1.20;99.90;;;;;;5092475;28;20296;-75
2020/12/03 08:58:12;;;;;;;;;;;1.30;99.90;;;;;;5088167;28;19908;-75
2020/12/03 09:00:42;;;;;;;;;;;1.20;99.90;;;;;;5094088;28;19915;-75
2020/12/03 09:03:10;;;;;;;;;;;1.30;99.90;;;;;;5092687;28;19908;-75
2020/12/03 09:05:36;;;;;;;;;;;1.30;99.90;;;;;;5092978;28;20578;-75
2020/12/03 09:08:02;;;;;;;;;;;1.30;99.90;;;;;;5092497;28;19923;-75
2020/12/03 09:10:30;;;;;;;;;;;1.40;99.90;;;;;;5094108;28;19915;-75
2020/12/03 09:12:55;;;;;;;;;;;1.50;99.90;;;;;;5093551;28;19916;-75
2020/12/03 09:15:21;;;;;;;;;;;1.50;99.90;;;;;;5086463;28;19912;-75
2020/12/03 09:17:55;;;;;;;;;;;1.50;99.90;;;;;;5093058;28;19912;-75
2020/12/03 09:20:20;;;;;;;;;;;1.50;99.90;;;;;;5094035;28;20094;-75
2020/12/03 09:22:46;;;;;;;;;;;1.50;99.90;;;;;;5093865;28;20309;-75
2020/12/03 09:25:13;;;;;;;;;;;1.50;99.90;;;;;;5093594;28;19912;-75
2020/12/03 09:27:43;;;;;;;;;;;1.60;99.90;;;;;;5092194;28;19999;-75
2020/12/03 09:30:28;;;;;;;;;;;1.60;99.90;;;;;;5093628;28;19947;-75
2020/12/03 09:32:58;;;;;;;;;;;1.60;99.90;;;;;;5093556;28;19995;-75
2020/12/03 09:35:25;;;;;;;;;;;1.70;99.90;;;;;;5091875;28;19915;-75
2020/12/03 09:37:54;;;;;;;;;;;1.80;99.90;;;;;;5092050;28;19908;-75
2020/12/03 09:40:20;;;;;;;;;;;1.80;99.90;;;;;;5093074;28;19958;-75
2020/12/03 09:42:48;;;;;;;;;;;1.90;99.90;;;;;;5093652;28;19951;-75
2020/12/03 09:45:18;;;;;;;;;;;1.90;99.90;;;;;;5085412;28;19951;-75
2020/12/03 09:47:45;;;;;;;;;;;1.90;99.90;;;;;;5091685;28;20338;-75
2020/12/03 09:50:11;;;;;;;;;;;1.90;99.90;;;;;;5092809;28;19908;-75
2020/12/03 09:52:39;;;;;;;;;;;1.90;99.90;;;;;;5093256;28;19963;-75
2020/12/03 09:55:08;;;;;;;;;;;1.90;99.90;;;;;;5093512;28;19999;-75
2020/12/03 09:57:34;;;;;;;;;;;1.90;99.90;;;;;;5085708;28;19917;-75
2020/12/03 10:00:00;;;;;;;;;;;1.80;99.90;;;;;;5093105;28;20272;-75
2020/12/03 10:02:46;;;;;;;;;;;1.80;99.90;;;;;;5092758;28;19908;-75
2020/12/03 10:05:19;;;;;;;;;;;1.90;99.90;;;;;;5071578;28;20283;-75
2020/12/03 10:07:48;;;;;;;;;;;2.00;99.90;;;;;;5092485;28;19950;-75
2020/12/03 10:10:25;;;;;;;;;;;2.00;99.90;;;;;;5093106;28;20334;-75
2020/12/03 10:13:06;;;;;;;;;;;2.00;99.90;;;;;;5092720;28;20002;-75
2020/12/03 10:15:49;;;;;;;;;;;2.00;99.90;;;;;;5085031;28;19909;-75
2020/12/03 10:18:18;;;;;;;;;;;2.10;99.90;;;;;;5092509;28;19914;-75
2020/12/03 10:20:47;;;;;;;;;;;2.00;99.90;;;;;;5092984;28;19908;-75
2020/12/03 10:23:16;;;;;;;;;;;2.00;99.90;;;;;;5092390;28;19969;-75
2020/12/03 10:25:49;;;;;;;;;;;2.00;99.90;;;;;;5092495;28;19953;-75
2020/12/03 10:28:22;;;;;;;;;;;2.00;99.90;;;;;;5092169;28;19924;-75
2020/12/03 10:30:52;;;;;;;;;;;2.00;99.90;;;;;;5092712;28;19912;-75
2020/12/03 10:33:18;;;;;;;;;;;2.00;99.90;;;;;;5092719;28;20419;-75
2020/12/03 10:35:44;;;;;;;;;;;2.10;99.90;;;;;;5091868;28;19908;-75
2020/12/03 10:38:22;;;;;;;;;;;2.10;99.90;;;;;;5092484;28;19915;-75
2020/12/03 10:40:54;;;;;;;;;;;2.20;99.90;;;;;;5092042;28;19915;-75
2020/12/03 10:43:25;;;;;;;;;;;2.30;99.90;;;;;;5092439;28;19908;-75
2020/12/03 10:45:54;;;;;;;;;;;2.40;99.90;;;;;;5082528;28;19908;-75
2020/12/03 10:48:26;;;;;;;;;;;2.40;99.90;;;;;;5092136;28;19915;-75
2020/12/03 10:50:59;;;;;;;;;;;2.40;99.90;;;;;;5091481;28;20355;-75
2020/12/03 10:53:26;;;;;;;;;;;2.50;99.90;;;;;;5092258;28;20384;-75
2020/12/03 10:56:04;;;;;;;;;;;2.60;99.90;;;;;;5090013;28;19908;-75
2020/12/03 10:58:33;;;;;;;;;;;2.70;99.90;;;;;;5085147;28;20307;-75
2020/12/03 11:01:06;;;;;;;;;;;2.70;99.90;;;;;;5085542;28;19909;-75
2020/12/03 11:03:33;;;;;;;;;;;2.70;99.90;;;;;;5087258;28;20373;-75
2020/12/03 11:05:58;;;;;;;;;;;2.70;99.90;;;;;;5077279;28;19914;-75
2020/12/03 11:08:24;;;;;;;;;;;2.60;99.90;;;;;;5085634;28;20350;-75
2020/12/03 11:10:53;;;;;;;;;;;2.70;99.90;;;;;;5084252;28;19957;-75
2020/12/03 11:13:20;;;;;;;;;;;2.70;99.90;;;;;;5090289;28;19955;-75
2020/12/03 11:15:49;;;;;;;;;;;2.70;99.90;;;;;;5083654;28;19963;-75
2020/12/03 11:18:18;;;;;;;;;;;2.70;99.90;;;;;;5091199;28;20007;-75
2020/12/03 11:20:43;;;;;;;;;;;2.70;99.90;;;;;;5091653;28;20369;-75
2020/12/03 11:23:18;;;;;;;;;;;2.70;99.90;;;;;;5091296;28;19923;-75
2020/12/03 11:25:44;;;;;;;;;;;2.70;99.90;;;;;;5091643;28;19954;-75
2020/12/03 11:28:28;;;;;;;;;;;2.80;99.90;;;;;;5091024;28;20342;-75
2020/12/03 11:30:55;;;;;;;;;;;2.80;99.90;;;;;;5091524;28;19955;-75
2020/12/03 11:33:25;;;;;;;;;;;2.70;99.90;;;;;;5091578;28;19912;-75
2020/12/03 11:36:00;;;;;;;;;;;2.70;99.90;;;;;;5090731;28;19908;-75
2020/12/03 11:38:31;;;;;;;;;;;2.70;99.90;;;;;;5088758;28;20367;-75
2020/12/03 11:40:57;;;;;;;;;;;2.70;99.90;;;;;;5080262;28;19969;-75
2020/12/03 11:46:48;;;;;;;;;;;2.70;99.90;;;;;;5078007;28;19919;-75
2020/12/03 11:49:22;;;;;;;;;;;2.70;99.90;;;;;;5088550;28;19934;-75
2020/12/03 11:51:47;;;;;;;;;;;2.70;99.90;;;;;;5076260;28;19912;-75
2020/12/03 11:54:13;;;;;;;;;;;2.80;99.90;;;;;;5080061;28;19954;-75
2020/12/03 11:56:38;;;;;;;;;;;2.80;99.90;;;;;;5080078;28;19930;-75
2020/12/03 11:59:20;;;;;;;;;;;2.80;99.90;;;;;;5091088;28;19919;-75
2020/12/03 12:01:49;;;;;;;;;;;2.70;99.90;;;;;;5090481;28;19908;-75
2020/12/03 12:04:17;;;;;;;;;;;2.80;99.90;;;;;;5091176;28;19930;-75
2020/12/03 12:06:56;;;;;;;;;;;2.80;99.90;;;;;;5090087;28;19908;-75
2020/12/03 12:09:30;;;;;;;;;;;2.80;99.90;;;;;;5082140;28;20322;-75
2020/12/03 12:11:55;;;;;;;;;;;2.70;99.90;;;;;;5087422;28;20018;-75
2020/12/03 12:14:21;;;;;;;;;;;2.70;99.90;;;;;;5094741;28;20372;-75
2020/12/03 12:16:46;;;;;;;;;;;2.60;99.90;;;;;;5087351;28;19919;-75
2020/12/03 12:19:12;;;;;;;;;;;2.70;99.90;;;;;;5094713;28;19954;-75
2020/12/03 12:21:37;;;;;;;;;;;2.60;99.90;;;;;;5095195;28;19915;-75
2020/12/03 12:24:03;;;;;;;;;;;2.60;99.90;;;;;;5087323;28;19915;-75
2020/12/03 12:26:28;;;;;;;;;;;2.70;99.90;;;;;;5083556;28;19919;-75
2020/12/03 12:28:54;;;;;;;;;;;2.70;99.90;;;;;;5101024;28;20353;-76
2020/12/03 12:31:20;;;;;;;;;;;2.70;99.90;;;;;;5115716;28;19916;-76
2020/12/03 12:33:45;;;;;;;;;;;2.80;99.90;;;;;;5114110;28;19908;-72
2020/12/03 12:36:11;;;;;;;;;;;2.90;99.90;;;;;;5114588;28;19908;-76
2020/12/03 12:38:36;;;;;;;;;;;2.80;99.90;;;;;;5115296;28;19918;-76
2020/12/03 12:41:02;;;;;;;;;;;2.80;99.90;;;;;;5114832;28;19907;-74
2020/12/03 12:43:27;;;;;;;;;;;2.90;99.90;;;;;;5115133;28;19908;-73
2020/12/03 12:45:53;;;;;;;;;;;3.00;99.90;;;;;;5090845;28;19916;-74
2020/12/03 12:48:18;;;;;;;;;;;3.00;99.90;;;;;;5085675;28;19931;-76
2020/12/03 12:50:44;;;;;;;;;;;3.10;99.90;;;;;;5087972;28;20359;-76
2020/12/03 12:53:09;;;;;;;;;;;3.10;99.90;;;;;;5077436;28;19908;-76
2020/12/03 12:55:35;;;;;;;;;;;3.20;99.90;;;;;;5088719;28;19991;-76
2020/12/03 12:58:00;;;;;;;;;;;3.20;99.90;;;;;;5085893;28;19924;-73
2020/12/03 13:00:26;;;;;;;;;;;3.20;99.90;;;;;;5088736;28;19918;-73
2020/12/03 13:02:51;;;;;;;;;;;3.20;99.90;;;;;;5084238;28;19908;-76
2020/12/03 13:05:18;;;;;;;;;;;3.30;99.90;;;;;;5090580;28;20326;-76
2020/12/03 13:07:43;;;;;;;;;;;3.40;99.90;;;;;;5078777;28;20002;-76
2020/12/03 13:10:08;;;;;;;;;;;3.30;99.90;;;;;;5082305;28;19947;-76
2020/12/03 13:12:34;;;;;;;;;;;3.30;99.90;;;;;;5080613;28;20392;-73
2020/12/03 13:15:00;;;;;;;;;;;3.30;99.90;;;;;;5084816;28;19909;-76
2020/12/03 13:17:25;;;;;;;;;;;3.20;99.90;;;;;;5086333;28;20361;-75
2020/12/03 13:19:51;;;;;;;;;;;3.20;99.90;;;;;;5077328;28;19978;-76
2020/12/03 13:22:16;;;;;;;;;;;3.10;99.90;;;;;;5085751;28;19912;-74
2020/12/03 13:24:42;;;;;;;;;;;3.10;99.90;;;;;;5078796;28;19908;-76
2020/12/03 13:27:07;;;;;;;;;;;3.10;99.90;;;;;;5076776;28;19931;-76
2020/12/03 13:29:32;;;;;;;;;;;3.00;99.90;;;;;;5078912;28;19916;-76
2020/12/03 13:31:58;;;;;;;;;;;3.00;99.90;;;;;;5088929;28;20082;-76
2020/12/03 13:34:24;;;;;;;;;;;3.00;99.90;;;;;;5085207;28;19957;-76
2020/12/03 13:36:49;;;;;;;;;;;3.00;99.90;;;;;;5088743;28;19908;-75
2020/12/03 13:39:15;;;;;;;;;;;3.00;99.90;;;;;;5082740;28;19920;-75
2020/12/03 13:41:40;;;;;;;;;;;3.00;99.90;;;;;;5081855;28;19908;-76
2020/12/03 13:44:06;;;;;;;;;;;2.90;99.90;;;;;;5085442;28;20314;-76
2020/12/03 13:46:35;;;;;;;;;;;2.90;99.90;;;;;;5076687;28;20357;-76
2020/12/03 13:49:01;;;;;;;;;;;3.00;99.90;;;;;;5089127;28;19915;-76
2020/12/03 13:51:26;;;;;;;;;;;3.00;99.90;;;;;;5086840;28;19912;-76
2020/12/03 13:53:52;;;;;;;;;;;3.00;99.90;;;;;;5090176;28;19916;-76
2020/12/03 13:56:19;;;;;;;;;;;3.00;99.90;;;;;;5079518;28;20027;-75
2020/12/03 13:58:44;;;;;;;;;;;3.10;99.90;;;;;;5099214;28;19915;-76
2020/12/03 14:01:10;;;;;;;;;;;3.10;99.90;;;;;;5091196;28;19908;-75
2020/12/03 14:03:35;;;;;;;;;;;3.10;99.90;;;;;;5081799;28;19961;-73
2020/12/03 14:06:01;;;;;;;;;;;3.10;99.90;;;;;;5079948;28;19942;-76
2020/12/03 14:08:27;;;;;;;;;;;3.10;99.90;;;;;;5087478;28;20241;-76
2020/12/03 14:10:53;;;;;;;;;;;3.10;99.90;;;;;;5075848;28;20105;-73
2020/12/03 14:13:18;;;;;;;;;;;3.10;99.90;;;;;;5078527;28;20002;-76
2020/12/03 14:15:44;;;;;;;;;;;3.10;99.90;;;;;;5077348;28;19908;-74
2020/12/03 14:18:09;;;;;;;;;;;3.10;99.90;;;;;;5086762;28;19931;-76
2020/12/03 14:20:35;;;;;;;;;;;3.10;99.90;;;;;;5085585;28;19931;-76
2020/12/03 14:23:00;;;;;;;;;;;3.10;99.90;;;;;;5088174;28;19908;-75
2020/12/03 14:25:26;;;;;;;;;;;3.10;99.90;;;;;;5083504;28;19916;-75
2020/12/03 14:27:51;;;;;;;;;;;3.00;99.90;;;;;;5087847;28;19924;-76
2020/12/03 14:30:17;;;;;;;;;;;3.00;99.90;;;;;;5088152;28;19912;-76
2020/12/03 14:32:43;;;;;;;;;;;3.00;99.90;;;;;;5076097;28;19958;-76
2020/12/03 14:35:08;;;;;;;;;;;3.00;99.90;;;;;;5081458;28;19912;-74
2020/12/03 14:37:38;;;;;;;;;;;3.00;99.90;;;;;;5084620;28;19963;-74
2020/12/03 14:40:08;;;;;;;;;;;3.00;99.90;;;;;;5083333;28;19915;-76
2020/12/03 14:42:34;;;;;;;;;;;3.00;99.90;;;;;;5090762;28;20012;-76
2020/12/03 14:45:07;;;;;;;;;;;3.10;99.90;;;;;;5087809;28;20271;-76